Pahrump, Nevada Weather observations

Data are for observation ending at time listed.
 Day   Time    Ave.   Ave.  Ave.  Vector   Max.   Stn.    Total    Solar   Ave.  
  of    of     Air    Rel.  Wind   Wind    Wind   Baro.  Precip.   Rad.    Soil  
Year   Day     Temp.  Hum.  Speed  Dir.    Gust   Pres.                    Temp. 
2017   (PST)    F      %     mph   deg.    mph     mb.     in.     W/m2     F   
------------------------------------------------------------------------------
  16    6:40   35.3    73    4.4   181      6.7   921.1    0.00       2    42.1
  16    6:50   35.1    73    5.3   161      8.6   921.2    0.00       3    42.0
  16    7:00   35.5    69    4.3   168      6.1   921.2    0.00       3    41.9
  16    7:10   35.4    70    4.7   154      8.2   921.3    0.00       7    41.8
  16    7:20   35.4    70    4.1   162      7.2   921.5    0.00      10    41.7
  16    7:30   35.8    67    3.7   163      6.1   921.6    0.00      27    41.6
  16    7:40   36.9    66    4.0   149      8.1   921.7    0.00      68    41.6
  16    7:50   37.0    67    5.4   150      8.2   921.8    0.00     103    41.5
  16    8:00   37.9    66    4.7   155      7.7   922.1    0.00     139    41.6
  16    8:10   38.9    63    3.8    43      6.1   922.4    0.00     168    41.8
  16    8:20   39.9    58    3.8    29      5.2   922.6    0.00     196    42.0
  16    8:30   40.1    59    5.1    29      7.4   922.9    0.00     225    42.3
  16    8:40   40.3    61    4.9    29      7.4   923.2    0.00     255    42.6
  16    8:50   40.8    60    5.0    29      6.9   923.5    0.00     283    42.9
  16    9:00   41.0    59    5.1    29      7.4   923.6    0.00     313    43.3
  16    9:10   41.3    57    5.7    29      8.4   923.7    0.00     342    43.6
  16    9:20   42.1    53    5.5    29      9.9   923.8    0.00     369    43.9
  16    9:30   42.4    52    6.6    60      9.3   924.0    0.00     394    44.3
  16    9:40   43.0    51    6.6   169      9.6   924.3    0.00     418    44.4
  16    9:50   43.4    48    5.1    42      8.2   924.4    0.00     442    44.4
  16   10:00   44.1    46    4.5   130      7.0   924.5    0.00     203    44.4
  16   10:10   44.9    45    4.7   144      7.4   924.6    0.00      41    44.3
  16   10:20   45.2    44    2.8   116      4.8   924.8    0.00     462    44.2
  16   10:30   46.5    42    3.1   134      4.8   924.7    0.00     490    44.1
  16   10:40   47.0    40    4.0   105      6.6   924.6    0.00     540    44.1
  16   10:50   47.4    38    1.8    93      4.5   924.5    0.00     552    44.2
  16   11:00   48.2    40    2.4   178      6.8   924.4    0.00     564    44.3
  16   11:10   48.0    40    2.4   230      4.7   924.4    0.00     575    44.3
  16   11:20   48.6    38    2.2   216      5.0   924.4    0.00     584    44.5
  16   11:30   49.1    37    2.1   182      5.1   924.4    0.00     593    45.0
  16   11:40   48.9    36    3.5    99      6.5   924.3    0.00     599    45.8
  16   11:50   49.5    34    2.6   179      5.8   924.1    0.00     605    46.5
  16   12:00   50.0    33    2.7   178      6.6   923.9    0.00     606    47.4
  16   12:10   49.4    35    4.3   139      8.6   923.8    0.00     582    48.1
  16   12:20   49.5    36    4.6   103      7.5   923.6    0.00     606    48.9
  16   12:30   50.1    35    4.7   107      6.6   923.5    0.00     602    49.5
  16   12:40   49.9    35    5.6    95      8.9   923.3    0.00     599    50.0
  16   12:50   49.9    37    5.6   139     10.4   923.2    0.00     574    50.5
  16   13:00   50.3    39    6.2   139     10.0   923.1    0.00     583    50.9
  16   13:10   50.3    38    7.2   138     10.4   923.0    0.00     573    51.3
  16   13:20   50.4    35    6.0   160      8.7   922.8    0.00     561    51.7
  16   13:30   51.4    34    5.0   157     10.2   922.8    0.00     547    52.0
  16   13:40   51.3    38    6.8   158     11.0   922.8    0.00     532    52.3
  16   13:50   51.5    38    8.2   147     12.6   922.8    0.00     515    52.6
  16   14:00   52.2    37    7.4   173     11.8   922.6    0.00     497    52.8
  16   14:10   52.2    37    7.6   207     11.7   922.5    0.00     478    53.0
  16   14:20   52.5    34    6.8   211     10.9   922.4    0.00     457    53.2
  16   14:30   52.4    38    6.8   199     11.3   922.3    0.00     434    53.3
  16   14:40   52.9    38    5.7   200      9.2   922.3    0.00     409    53.4
  16   14:50   52.9    36    6.2   212      9.9   922.3    0.00     384    53.4
  16   15:00   53.5    35    4.8   214      7.8   922.5    0.00     357    53.4
  16   15:10   53.5    34    5.3   215      8.4   922.5    0.00     324    53.5
  16   15:20   53.8    32    5.3   200     10.3   922.5    0.00     298    53.4
  16   15:30   53.2    31    6.0   195      9.5   922.5    0.00     270    53.4
  16   15:40   53.3    30    6.1   206      9.2   922.5    0.00     243    53.3
  16   15:50   53.1    30    6.3   191      9.3   922.5    0.00     148    53.2
  16   16:00   52.8    31    6.6   185     10.3   922.5    0.00     181    53.0
  16   16:10   53.0    30    6.1   206      9.3   922.5    0.00     152    52.8
  16   16:20   52.6    30    6.1   188      9.3   922.5    0.00     118    52.6
  16   16:30   52.3    31    5.1   188      8.0   922.5    0.00      68    52.3
  16   16:40   52.1    32    3.8   191      6.7   922.5    0.00      46    52.0
  16   16:50   51.4    33    3.8   187      6.1   922.4    0.00      13    51.7
  16   17:00   51.0    33    3.0   196      5.4   922.3    0.00       4    51.5
  16   17:10   50.4    35    2.0   194      4.1   922.2    0.00       3    51.2
  16   17:20   49.9    36    0.9   194      3.0   922.2    0.00       2    50.9
  16   17:30   48.6    42    1.3    51      2.6   922.1    0.00       0    50.6
  16   17:40   47.0    47    0.2   299      1.2   922.0    0.00       0    50.3
  16   17:50   45.9    48    0.4   135      2.0   921.9    0.00       0    50.0
  16   18:00   46.7    48    1.1   130      2.3   921.9    0.00       0    49.8
  16   18:10   45.5    53    1.9   349      3.4   921.9    0.00       0    49.5
  16   18:20   44.1    57    1.7    57      2.7   921.8    0.00       0    49.2
  16   18:30   44.6    55    2.1    58      3.4   921.8    0.00       0    49.0
  16   18:40   44.5    55    1.3    97      2.7   921.8    0.00       0    48.8
  16   18:50   43.6    61    2.7   118      3.7   921.8    0.00       0    48.5
  16   19:00   42.7    64    1.7   123      3.1   921.8    0.00       0    48.3
  16   19:10   42.5    63    1.8   146      2.8   921.7    0.00       0    48.1
  16   19:20   41.7    64    1.2   202      3.0   921.8    0.00       0    47.9
  16   19:30   41.9    63    2.4   156      3.7   921.8    0.00       0    47.7
  16   19:40   41.6    64    2.3   116      3.3   921.9    0.00       0    47.5
  16   19:50   40.9    68    2.2   140      2.9   921.9    0.00       0    47.3
  16   20:00   40.6    67    2.7   124      4.6   921.9    0.00       0    47.1
  16   20:10   41.2    63    2.9   115      4.2   921.9    0.00       0    46.9
  16   20:20   41.6    60    0.9   108      1.5   922.0    0.00       0    46.7
  16   20:30   41.6    60    1.0   100      3.1   922.0    0.00       0    46.6
  16   20:40   40.8    62    2.2   117      3.2   922.1    0.00       0    46.4
  16   20:50   40.3    63    1.6   101      3.2   922.3    0.00       0    46.2
  16   21:00   39.8    63    2.2    96      4.9   922.3    0.00       0    46.1
  16   21:10   39.3    65    2.3    98      4.2   922.4    0.00       0    45.9
  16   21:20   38.7    68    1.4   129      2.6   922.4    0.00       0    45.8
  16   21:30   38.1    70    0.9   159      2.4   922.3    0.00       0    45.6
  16   21:40   37.9    71    0.9    90      1.8   922.2    0.00       0    45.4
  16   21:50   37.3    72    1.1   282      3.0   922.1    0.00       0    45.3
  16   22:00   36.7    74    0.7   150      2.3   922.1    0.00       0    45.1
  16   22:10   36.7    74    2.3    13      3.2   922.2    0.00       0    45.0
  16   22:20   36.8    71    1.9   350      3.7   922.2    0.00       0    44.8
  16   22:30   36.1    73    1.4     0      2.9   922.3    0.00       0    44.7
  16   22:40   35.6    75    1.4    78      2.6   922.3    0.00       0    44.5
  16   22:50   35.8    74    2.2   138      3.3   922.3    0.00       0    44.4
  16   23:00   35.9    74    2.2   151      3.1   922.3    0.00       0    44.3
  16   23:10   36.1    73    2.9   129      4.3   922.3    0.00       0    44.1
  16   23:20   36.3    72    0.9   192      2.8   922.2    0.00       0    44.0
  16   23:30   37.0    66    0.1   165      0.8   922.2    0.00       0    43.8
  16   23:40   37.9    60    1.2   249      5.6   922.2    0.00       0    43.7
  16   23:50   36.1    65    2.4   207      3.7   922.2    0.00       0    43.6
  17    0:00   35.7    69    3.0   166      4.7   922.0    0.00       0    43.4
  17    0:10   35.6    69    2.3   153      2.9   921.9    0.00       0    43.3
  17    0:20   35.4    70    1.6   145      2.3   921.9    0.00       0    43.2
  17    0:30   35.4    69    2.5   159      3.9   921.9    0.00       0    43.1
  17    0:40   35.1    69    1.9   148      2.9   921.9    0.00       0    43.0
  17    0:50   34.8    70    2.1   136      3.7   921.9    0.00       0    42.8
  17    1:00   34.8    69    2.2   171      4.2   921.8    0.00       0    42.7
  17    1:10   34.5    72    3.2   124      4.7   921.8    0.00       0    42.6
  17    1:20   34.3    72    1.5   189      2.6   921.7    0.00       0    42.5
  17    1:30   33.6    73    1.2   242      3.3   921.7    0.00       0    42.4
  17    1:40   33.3    74    0.8   149      3.4   921.7    0.00       0    42.3
  17    1:50   33.3    77    1.3   142      3.5   921.8    0.00       0    42.2
  17    2:00   33.4    75    2.3   186      4.5   921.8    0.00       0    42.0
  17    2:10   34.2    72    2.4   175      3.9   921.8    0.00       0    41.9
  17    2:20   34.2    73    2.2   155      4.0   921.8    0.00       0    41.8
  17    2:30   34.1    73    2.6   154      4.7   921.8    0.00       0    41.7
  17    2:40   34.2    72    2.5   155      4.4   921.9    0.00       0    41.6
  17    2:50   34.0    72    2.0   165      3.4   921.8    0.00       0    41.5
  17    3:00   33.8    73    1.3   162      2.6   921.9    0.00       0    41.4
  17    3:10   33.5    74    0.6   163      1.3   921.8    0.00       0    41.3
  17    3:20   33.4    74    2.7   113      4.4   921.7    0.00       0    41.3
  17    3:30   33.7    72    1.8   110      3.7   921.6    0.00       0    41.2
  17    3:40   33.6    72    1.8   136      3.1   921.5    0.00       0    41.1
  17    3:50   33.5    73    1.3   187      3.0   921.4    0.00       0    41.0
  17    4:00   32.7    74    1.8   231      3.9   921.4    0.00       0    40.9
  17    4:10   31.1    78    1.7   228      3.1   921.3    0.00       0    40.8
  17    4:20   30.4    80    1.0   205      2.4   921.2    0.00       0    40.7
  17    4:30   30.9    80    2.5   116      4.0   921.1    0.00       0    40.6
  17    4:40   31.8    78    3.0   138      5.0   921.0    0.00       0    40.5
  17    4:50   32.7    74    1.8   146      3.9   921.1    0.00       0    40.4
  17    5:00   33.5    70    3.5   133      4.8   921.1    0.00       0    40.3
  17    5:10   31.9    74    1.4   266      3.1   921.2    0.00       0    40.3
  17    5:20   30.4    78    1.4   332      3.4   921.4    0.00       0    40.2
  17    5:30   29.4    81    1.2   319      3.8   921.6    0.00       0    40.1
  17    5:40   28.8    83    1.2   352      3.1   921.7    0.00       0    40.0
  17    5:50   29.6    83    3.0    57      4.6   921.7    0.00       0    39.9
  17    6:00   31.2    77    3.5    76      5.1   921.8    0.00       0    39.8
  17    6:10   32.1    74    1.0    86      3.1   921.9    0.00       0    39.7
  17    6:20   31.1    76    0.5   212      1.5   922.0    0.00       0    39.6
  17    6:30   29.9    79    0.2   247      0.9   922.1    0.00       0    39.5

Return to Pahrump, Nevada graphs page.


Western Regional Climate Center,wrcc@dri.edu